Nashville, Ohio
Current Conditions -  °F | °C
As of 8:56 AM on Thursday 29 Jan 2015 (Local Time) from KBJJ Reporting Station
Unknown Precip Unknown Precip  
Wind Chill: 17°   Ceiling: 6000
Heat Index: 30°   Visibility: 10mi
Dew Point: 20°   Wind: 21mph
Humidity: 66%   Direction: 180°S
Pressure: 29.86"   Gusts: NA
Location:  40.6°N, 82.11°W
Report Text: KBJJ 291356Z AUTO 18018KT 10SM UP SCT040 OVC060 M01/M07 A2986 RMK AO2 UPB08E25B56FZRAB25E56 SLP128 P0000 I1001 T10111067 TSNO
Loading
Personal Weather Stations






























Interactive Weather Map New forecast layout! Learn more

10-Day Weather Forecast

Advertisements
Track Severe Weather on mobile